Time;durP1;ratioP1;P1;durP2;ratioP2;P2;SDS_P1;SDS_P2;PMS_P1;PMS_P2;Temp;Humidity;BMP_temperature;BMP_pressure;BME280_temperature;BME280_humidity;BME280_pressure;Samples;Min_cycle;Max_cycle;Signal;HPM_P1;HPM_P2
2021/06/06 00:00:49;;;;;;;3.95;1.40;;;19.30;83.30;;;;;;5031751;28;20032;-61
2021/06/06 00:03:17;;;;;;;4.13;1.42;;;19.20;83.20;;;;;;5052964;28;20033;-61
2021/06/06 00:06:04;;;;;;;1.95;1.60;;;19.20;83.30;;;;;;5028379;28;20021;-60
2021/06/06 00:08:30;;;;;;;4.93;1.58;;;19.20;83.40;;;;;;5048851;28;20013;-61
2021/06/06 00:11:20;;;;;;;1.45;1.23;;;19.20;83.50;;;;;;5026765;28;20029;-61
2021/06/06 00:13:45;;;;;;;2.28;1.42;;;19.10;83.40;;;;;;5030952;28;20039;-61
2021/06/06 00:16:14;;;;;;;2.15;1.42;;;19.10;83.50;;;;;;5055209;28;20032;-61
2021/06/06 00:18:39;;;;;;;2.92;1.35;;;19.10;83.60;;;;;;5013011;28;20445;-61
2021/06/06 00:21:05;;;;;;;1.60;1.15;;;19.10;83.60;;;;;;5051185;28;20098;-60
2021/06/06 00:23:32;;;;;;;3.60;1.63;;;19.10;83.70;;;;;;5051100;28;20044;-61
2021/06/06 00:25:58;;;;;;;2.08;1.20;;;19.10;83.80;;;;;;5033409;28;20262;-61
2021/06/06 00:28:24;;;;;;;2.05;1.70;;;19.10;83.80;;;;;;5017461;28;20079;-61
2021/06/06 00:30:49;;;;;;;2.47;1.30;;;19.10;83.70;;;;;;5056601;28;20487;-60
2021/06/06 00:33:15;;;;;;;1.98;0.93;;;19.00;83.70;;;;;;5032155;28;20033;-61
2021/06/06 00:35:40;;;;;;;1.75;1.35;;;19.10;83.80;;;;;;5054727;28;20036;-60
2021/06/06 00:38:06;;;;;;;2.53;1.25;;;19.10;83.80;;;;;;5053000;28;20394;-61
2021/06/06 00:40:32;;;;;;;3.97;1.10;;;19.00;83.80;;;;;;5054898;28;20255;-61
2021/06/06 00:42:58;;;;;;;2.38;1.40;;;19.10;83.90;;;;;;5050911;28;20025;-61
2021/06/06 00:45:27;;;;;;;3.40;1.38;;;19.00;84.00;;;;;;5055721;28;20025;-60
2021/06/06 00:47:52;;;;;;;1.67;1.27;;;19.00;84.00;;;;;;5050412;28;20028;-61
2021/06/06 00:50:29;;;;;;;2.72;1.70;;;19.00;84.10;;;;;;5052779;28;20032;-61
2021/06/06 00:52:56;;;;;;;1.98;1.20;;;19.00;84.00;;;;;;5029415;28;20013;-61
2021/06/06 00:55:22;;;;;;;1.77;1.20;;;19.00;84.10;;;;;;5036779;28;20399;-61
2021/06/06 00:57:47;;;;;;;2.30;1.13;;;18.80;84.00;;;;;;5036827;28;20296;-60
2021/06/06 01:00:13;;;;;;;4.50;1.27;;;18.90;84.20;;;;;;5039071;28;20376;-60
2021/06/06 01:02:40;;;;;;;2.60;1.30;;;18.90;84.20;;;;;;5042609;28;20093;-60
2021/06/06 01:05:28;;;;;;;1.73;1.10;;;18.90;84.20;;;;;;5055155;28;20028;-61
2021/06/06 01:07:54;;;;;;;1.88;1.15;;;18.90;84.20;;;;;;5028331;28;20713;-60
2021/06/06 01:10:19;;;;;;;2.92;1.30;;;18.90;84.20;;;;;;5033033;28;20021;-60
2021/06/06 01:12:48;;;;;;;1.30;1.10;;;19.00;84.40;;;;;;5043753;28;20146;-60
2021/06/06 01:15:26;;;;;;;3.58;1.50;;;18.90;84.30;;;;;;5020781;28;20040;-60
2021/06/06 01:17:55;;;;;;;1.35;1.23;;;18.90;84.40;;;;;;5032443;28;20048;-61
2021/06/06 01:21:01;;;;;;;2.50;1.15;;;18.90;84.40;;;;;;5053244;28;20032;-60
2021/06/06 01:24:04;;;;;;;2.45;1.20;;;18.90;84.40;;;;;;5033040;28;20041;-61
2021/06/06 01:26:33;;;;;;;2.03;1.10;;;18.90;84.50;;;;;;5048588;28;20036;-61
2021/06/06 01:29:19;;;;;;;2.22;1.20;;;18.90;84.50;;;;;;5036853;28;20037;-60
2021/06/06 01:31:46;;;;;;;2.38;1.33;;;18.80;85.30;;;;;;5036706;28;20021;-61
2021/06/06 01:34:12;;;;;;;3.22;1.10;;;18.80;84.60;;;;;;5020190;28;20116;-60
2021/06/06 01:37:03;;;;;;;2.50;1.20;;;18.80;84.60;;;;;;5033656;28;20472;-60
2021/06/06 01:39:42;;;;;;;1.70;1.20;;;18.80;84.60;;;;;;5027277;28;20032;-60
2021/06/06 01:42:17;;;;;;;4.50;1.50;;;18.80;84.70;;;;;;5027907;28;20073;-60
2021/06/06 01:44:45;;;;;;;1.17;1.08;;;18.80;84.80;;;;;;5033338;28;20025;-60
2021/06/06 01:47:14;;;;;;;2.65;1.30;;;18.80;84.70;;;;;;5021497;28;20360;-61
2021/06/06 01:49:43;;;;;;;1.38;0.93;;;18.80;84.80;;;;;;5035965;28;20100;-60
2021/06/06 01:52:11;;;;;;;1.67;1.10;;;18.80;84.80;;;;;;5032155;28;20024;-61
2021/06/06 01:54:38;;;;;;;2.85;1.10;;;18.70;84.80;;;;;;5034295;28;20029;-60
2021/06/06 01:57:04;;;;;;;1.30;1.20;;;18.70;84.70;;;;;;5019781;28;20347;-60
2021/06/06 01:59:38;;;;;;;3.38;1.40;;;18.80;84.80;;;;;;5031057;28;20036;-60
2021/06/06 02:02:04;;;;;;;3.50;0.98;;;18.70;84.70;;;;;;5048789;28;20043;-60
2021/06/06 02:04:29;;;;;;;5.35;1.30;;;18.70;84.60;;;;;;5036501;28;20022;-60
2021/06/06 02:07:01;;;;;;;1.65;1.33;;;18.70;84.60;;;;;;5033570;28;20041;-60
2021/06/06 02:09:28;;;;;;;1.35;1.10;;;18.70;84.60;;;;;;5018637;28;20025;-60
2021/06/06 02:11:59;;;;;;;1.45;0.85;;;18.70;84.70;;;;;;5037890;28;20187;-61
2021/06/06 02:14:27;;;;;;;1.50;1.05;;;18.70;84.80;;;;;;5037631;28;20036;-60
2021/06/06 02:16:54;;;;;;;2.25;1.05;;;18.70;84.80;;;;;;5033475;28;20047;-60
2021/06/06 02:19:24;;;;;;;3.00;1.15;;;18.70;84.80;;;;;;5056104;28;20055;-60
2021/06/06 02:21:52;;;;;;;1.58;1.17;;;18.70;84.90;;;;;;5030140;28;20064;-60
2021/06/06 02:24:17;;;;;;;1.85;1.17;;;18.70;84.90;;;;;;5032045;28;20037;-61
2021/06/06 02:27:02;;;;;;;4.50;1.00;;;18.60;84.90;;;;;;5032698;28;20029;-60
2021/06/06 02:29:35;;;;;;;3.55;1.17;;;18.60;84.90;;;;;;5028875;28;20068;-60
2021/06/06 02:32:17;;;;;;;1.90;1.25;;;18.60;84.90;;;;;;5043754;28;20515;-60
2021/06/06 02:35:07;;;;;;;3.03;1.00;;;18.60;84.90;;;;;;5017119;28;20627;-60
2021/06/06 02:37:41;;;;;;;1.00;0.82;;;18.60;84.90;;;;;;5033261;28;20108;-60
2021/06/06 02:40:12;;;;;;;1.17;0.90;;;18.60;85.00;;;;;;5043467;28;20084;-60
2021/06/06 02:42:41;;;;;;;1.10;0.90;;;18.60;84.90;;;;;;5032007;28;20075;-60
2021/06/06 02:45:09;;;;;;;2.22;0.95;;;18.60;85.00;;;;;;5039714;28;20052;-60
2021/06/06 02:47:35;;;;;;;2.88;1.10;;;18.60;84.90;;;;;;5038751;28;20428;-60
2021/06/06 02:50:10;;;;;;;2.78;1.10;;;18.60;84.90;;;;;;5014872;28;20032;-60
2021/06/06 02:52:41;;;;;;;3.53;1.15;;;18.60;85.00;;;;;;5030641;28;20033;-60
2021/06/06 02:55:13;;;;;;;3.08;1.10;;;18.60;85.00;;;;;;5027011;28;20288;-60
2021/06/06 02:57:39;;;;;;;2.40;1.20;;;18.60;85.10;;;;;;5027653;28;20037;-60
2021/06/06 03:00:21;;;;;;;2.55;0.93;;;18.60;85.10;;;;;;5031032;28;20021;-60
2021/06/06 03:02:49;;;;;;;1.00;0.93;;;18.60;85.10;;;;;;5042863;28;20029;-60
2021/06/06 03:05:18;;;;;;;1.27;0.75;;;18.60;85.20;;;;;;5030600;28;20025;-60
2021/06/06 03:07:47;;;;;;;1.02;0.93;;;18.50;85.20;;;;;;5036219;28;20499;-60
2021/06/06 03:10:13;;;;;;;2.97;0.98;;;18.50;85.20;;;;;;5026448;28;20052;-60
2021/06/06 03:12:38;;;;;;;2.97;1.05;;;18.50;85.20;;;;;;5027292;28;20023;-60
2021/06/06 03:15:07;;;;;;;2.58;1.05;;;18.50;85.90;;;;;;5031119;28;20028;-60
2021/06/06 03:17:37;;;;;;;0.90;0.80;;;18.50;85.30;;;;;;5039372;28;20124;-60
2021/06/06 03:20:13;;;;;;;1.05;0.95;;;18.50;85.40;;;;;;5030080;28;20103;-60
2021/06/06 03:22:39;;;;;;;3.00;1.08;;;18.50;85.30;;;;;;5027141;28;20087;-60
2021/06/06 03:25:34;;;;;;;1.83;0.93;;;18.50;85.30;;;;;;5017987;28;20029;-60
2021/06/06 03:27:59;;;;;;;1.85;0.90;;;18.50;85.30;;;;;;5035733;28;20017;-60
2021/06/06 03:30:29;;;;;;;1.48;0.80;;;18.50;85.30;;;;;;5015031;28;20778;-60
2021/06/06 03:32:54;;;;;;;1.40;1.00;;;18.50;85.30;;;;;;5031349;28;20041;-60
2021/06/06 03:35:20;;;;;;;1.08;0.98;;;18.50;85.40;;;;;;5019472;28;20029;-60
2021/06/06 03:37:45;;;;;;;1.75;0.90;;;18.50;85.50;;;;;;5049774;28;20516;-60
2021/06/06 03:40:12;;;;;;;1.13;1.00;;;18.50;85.60;;;;;;5042414;28;20024;-60
2021/06/06 03:42:38;;;;;;;2.15;0.90;;;18.50;85.70;;;;;;5031024;28;20021;-60
2021/06/06 03:45:06;;;;;;;1.08;0.90;;;18.50;85.80;;;;;;5041705;28;20036;-60
2021/06/06 03:47:31;;;;;;;1.23;1.10;;;18.50;85.70;;;;;;5032421;28;20106;-60
2021/06/06 03:49:57;;;;;;;2.60;1.10;;;18.50;85.90;;;;;;5032600;28;20056;-61
2021/06/06 03:52:22;;;;;;;1.10;1.00;;;18.50;85.70;;;;;;5047112;28;20194;-60
2021/06/06 03:54:48;;;;;;;2.45;1.08;;;18.50;86.00;;;;;;5049394;28;20383;-60
2021/06/06 03:57:13;;;;;;;1.20;1.05;;;18.50;86.20;;;;;;5039496;28;20557;-60
2021/06/06 03:59:39;;;;;;;2.13;1.05;;;18.50;86.10;;;;;;5045709;28;20029;-60
2021/06/06 04:02:05;;;;;;;1.27;1.00;;;18.50;86.10;;;;;;5048381;28;20057;-60
2021/06/06 04:04:30;;;;;;;1.60;0.88;;;18.50;86.10;;;;;;5049313;28;20044;-60
2021/06/06 04:06:56;;;;;;;2.17;1.00;;;18.50;86.00;;;;;;5050750;28;20107;-60
2021/06/06 04:09:21;;;;;;;3.47;1.10;;;18.40;86.00;;;;;;5055312;28;20095;-60
2021/06/06 04:11:47;;;;;;;1.33;1.20;;;18.50;86.00;;;;;;5034300;28;20029;-60
2021/06/06 04:14:12;;;;;;;2.35;0.82;;;18.50;86.00;;;;;;5051688;28;20040;-60
2021/06/06 04:16:38;;;;;;;1.35;0.82;;;18.50;86.00;;;;;;5026334;28;20021;-60
2021/06/06 04:19:04;;;;;;;3.53;1.13;;;18.50;86.00;;;;;;5034349;28;20099;-60
2021/06/06 04:21:30;;;;;;;1.58;1.15;;;18.50;86.00;;;;;;5031808;28;20135;-60
2021/06/06 04:23:56;;;;;;;4.32;1.10;;;18.50;86.00;;;;;;5018110;28;20544;-60
2021/06/06 04:26:21;;;;;;;3.00;1.08;;;18.50;85.90;;;;;;5031862;28;20112;-60
2021/06/06 04:28:47;;;;;;;2.47;1.30;;;18.50;85.90;;;;;;5037450;28;20025;-61
2021/06/06 04:31:13;;;;;;;4.93;1.23;;;18.50;86.00;;;;;;5006442;28;20033;-60
2021/06/06 04:33:39;;;;;;;2.92;1.20;;;18.50;86.10;;;;;;5044460;28;20020;-60
2021/06/06 04:36:05;;;;;;;2.30;1.10;;;18.50;86.20;;;;;;5035154;28;20099;-60
2021/06/06 04:38:31;;;;;;;4.72;1.20;;;18.50;86.10;;;;;;5031322;28;20036;-60
2021/06/06 04:40:57;;;;;;;3.42;1.30;;;18.50;86.30;;;;;;5033427;28;20384;-60
2021/06/06 04:43:23;;;;;;;2.65;1.17;;;18.50;86.20;;;;;;5048667;28;20059;-60
2021/06/06 04:45:49;;;;;;;3.60;1.10;;;18.50;86.20;;;;;;5045387;28;20057;-60
2021/06/06 04:48:36;;;;;;;6.72;1.70;;;18.50;86.20;;;;;;5024316;28;20049;-60
2021/06/06 04:51:08;;;;;;;11.95;1.13;;;18.50;86.10;;;;;;5050830;28;20024;-60
2021/06/06 04:53:34;;;;;;;2.72;1.20;;;18.50;86.10;;;;;;5010045;28;20087;-60
2021/06/06 04:56:00;;;;;;;3.53;1.33;;;18.50;86.00;;;;;;5032868;28;20029;-60
2021/06/06 04:58:26;;;;;;;2.65;1.13;;;18.50;86.20;;;;;;5053562;28;20083;-59
2021/06/06 05:00:52;;;;;;;2.40;1.20;;;18.60;86.30;;;;;;5053337;28;20061;-60
2021/06/06 05:03:19;;;;;;;4.25;1.30;;;18.50;86.30;;;;;;5052973;28;20053;-60
2021/06/06 05:05:44;;;;;;;3.92;1.45;;;18.50;86.20;;;;;;5031004;28;20368;-60
2021/06/06 05:08:11;;;;;;;3.53;1.10;;;18.60;86.20;;;;;;5031554;28;20117;-60
2021/06/06 05:10:37;;;;;;;9.75;1.60;;;18.50;85.90;;;;;;5029614;28;20522;-60
2021/06/06 05:13:03;;;;;;;8.43;1.33;;;18.60;85.90;;;;;;5051625;28;20280;-60
2021/06/06 05:15:29;;;;;;;2.03;1.10;;;18.60;86.00;;;;;;5031923;28;20470;-60
2021/06/06 05:17:54;;;;;;;4.22;1.27;;;18.60;86.00;;;;;;5036506;28;20052;-60
2021/06/06 05:20:23;;;;;;;5.85;1.20;;;18.60;85.90;;;;;;5052387;28;20116;-60
2021/06/06 05:22:49;;;;;;;10.10;1.73;;;18.60;86.00;;;;;;5050501;28;20497;-60
2021/06/06 05:25:15;;;;;;;4.47;1.40;;;18.60;85.90;;;;;;5022341;28;20101;-60
2021/06/06 05:27:41;;;;;;;2.00;1.33;;;18.60;86.00;;;;;;5013633;28;20694;-60
2021/06/06 05:30:08;;;;;;;5.25;1.52;;;18.70;86.10;;;;;;5032331;28;20423;-60
2021/06/06 05:32:34;;;;;;;5.85;1.25;;;18.70;86.10;;;;;;5026181;28;20392;-60
2021/06/06 05:34:59;;;;;;;4.00;1.25;;;18.60;86.10;;;;;;5043793;28;20032;-60
2021/06/06 05:37:25;;;;;;;2.75;1.30;;;18.70;86.60;;;;;;5041126;28;20481;-60
2021/06/06 05:39:52;;;;;;;3.67;1.30;;;18.60;86.20;;;;;;5037214;28;20052;-60
2021/06/06 05:42:17;;;;;;;2.13;1.30;;;18.60;86.00;;;;;;5041604;28;20456;-60
2021/06/06 05:44:43;;;;;;;5.70;1.55;;;18.60;85.90;;;;;;5046943;28;20040;-60
2021/06/06 05:47:09;;;;;;;2.25;1.33;;;18.70;85.90;;;;;;5044998;28;20027;-61
2021/06/06 05:49:34;;;;;;;2.97;1.38;;;18.70;85.70;;;;;;5046474;28;20098;-60
2021/06/06 05:52:00;;;;;;;5.07;1.50;;;18.70;85.60;;;;;;5040388;28;20547;-60
2021/06/06 05:54:25;;;;;;;8.65;1.98;;;18.70;85.40;;;;;;5039041;28;20409;-60
2021/06/06 05:56:51;;;;;;;5.22;1.48;;;18.70;85.50;;;;;;5028451;28;20083;-60
2021/06/06 05:59:16;;;;;;;6.97;1.58;;;18.70;85.70;;;;;;5028998;28;20038;-61
2021/06/06 06:01:42;;;;;;;7.50;1.50;;;18.70;85.40;;;;;;5048346;28;20041;-60
2021/06/06 06:04:07;;;;;;;2.97;1.42;;;18.80;85.50;;;;;;5039728;28;20033;-60
2021/06/06 06:06:33;;;;;;;9.05;1.88;;;18.70;85.30;;;;;;5036423;28;20049;-60
2021/06/06 06:08:58;;;;;;;11.85;1.63;;;18.80;85.40;;;;;;5042917;28;20026;-61
2021/06/06 06:11:24;;;;;;;6.35;1.60;;;18.80;85.20;;;;;;5031233;28;20030;-60
2021/06/06 06:13:50;;;;;;;5.43;1.50;;;18.80;85.10;;;;;;5031735;28;20049;-60
2021/06/06 06:16:17;;;;;;;8.98;1.50;;;18.80;85.20;;;;;;5034682;28;20040;-61
2021/06/06 06:18:43;;;;;;;7.57;1.60;;;18.80;85.20;;;;;;5033562;28;20499;-60
2021/06/06 06:21:10;;;;;;;3.22;1.55;;;18.80;85.30;;;;;;5028481;28;20033;-61
2021/06/06 06:23:36;;;;;;;8.20;1.70;;;18.80;85.20;;;;;;5028523;28;20037;-60
2021/06/06 06:26:01;;;;;;;9.80;1.83;;;18.80;85.20;;;;;;5027493;28;20399;-60
2021/06/06 06:28:27;;;;;;;9.90;1.80;;;18.80;85.50;;;;;;5008810;28;20354;-60
2021/06/06 06:30:52;;;;;;;6.75;2.28;;;18.80;85.40;;;;;;5026266;28;20021;-60
2021/06/06 06:33:18;;;;;;;6.32;1.80;;;18.80;85.30;;;;;;5043688;28;20037;-60
2021/06/06 06:35:43;;;;;;;5.72;1.83;;;18.90;86.00;;;;;;5025988;28;20567;-60
2021/06/06 06:38:09;;;;;;;6.03;1.90;;;18.90;86.10;;;;;;5021843;28;20033;-60
2021/06/06 06:40:35;;;;;;;8.85;1.60;;;18.90;86.30;;;;;;5045304;28;20028;-60
2021/06/06 06:43:01;;;;;;;9.43;2.03;;;18.90;86.10;;;;;;5026835;28;20036;-61
2021/06/06 06:45:31;;;;;;;8.20;1.92;;;18.90;86.20;;;;;;5033942;28;20041;-60
2021/06/06 06:47:59;;;;;;;5.07;1.77;;;18.90;85.90;;;;;;5040200;28;20036;-61
2021/06/06 06:50:25;;;;;;;3.58;1.75;;;18.90;85.90;;;;;;5031508;28;20017;-60
2021/06/06 06:52:51;;;;;;;5.07;1.73;;;19.00;86.10;;;;;;5037030;28;20411;-60
2021/06/06 06:55:17;;;;;;;4.50;1.55;;;19.00;86.20;;;;;;5030103;28;20037;-61
2021/06/06 06:57:43;;;;;;;7.25;1.70;;;19.00;86.10;;;;;;5031092;28;20127;-60
2021/06/06 07:00:11;;;;;;;3.85;1.77;;;19.00;86.20;;;;;;5030211;28;20056;-60
2021/06/06 07:02:37;;;;;;;6.22;1.75;;;19.00;86.00;;;;;;5014816;28;20044;-60
2021/06/06 07:05:04;;;;;;;7.10;1.63;;;19.00;86.10;;;;;;5043830;28;20104;-61
2021/06/06 07:07:29;;;;;;;11.15;1.88;;;19.00;85.80;;;;;;5019867;28;20471;-60
2021/06/06 07:09:55;;;;;;;9.98;1.85;;;19.00;85.70;;;;;;5037352;28;20104;-60
2021/06/06 07:12:20;;;;;;;7.75;2.00;;;19.00;85.40;;;;;;5045035;28;20025;-60
2021/06/06 07:14:46;;;;;;;5.93;1.70;;;19.00;85.40;;;;;;5034150;28;20500;-60
2021/06/06 07:17:11;;;;;;;14.35;1.92;;;19.00;85.30;;;;;;5037215;28;20540;-60
2021/06/06 07:19:37;;;;;;;6.72;1.75;;;19.00;85.40;;;;;;5031181;28;20056;-60
2021/06/06 07:22:03;;;;;;;4.47;1.40;;;19.00;85.20;;;;;;5028444;28;20511;-60
2021/06/06 07:24:28;;;;;;;3.67;1.40;;;19.00;85.20;;;;;;5044713;28;20072;-60
2021/06/06 07:26:54;;;;;;;3.95;1.83;;;19.00;85.10;;;;;;5038056;28;20103;-61
2021/06/06 07:29:22;;;;;;;6.45;1.67;;;19.00;85.00;;;;;;5047870;28;20072;-60
2021/06/06 07:31:48;;;;;;;6.15;1.63;;;19.00;84.90;;;;;;5026598;28;20519;-61
2021/06/06 07:34:15;;;;;;;4.22;1.30;;;19.00;84.70;;;;;;5041036;28;20099;-61
2021/06/06 07:36:41;;;;;;;4.57;1.38;;;19.10;84.60;;;;;;5033861;28;20057;-60
2021/06/06 07:39:06;;;;;;;7.10;1.70;;;19.10;84.60;;;;;;5046048;28;20531;-60
2021/06/06 07:41:32;;;;;;;3.45;1.15;;;19.10;84.50;;;;;;5038021;28;20049;-60
2021/06/06 07:43:58;;;;;;;6.90;1.50;;;19.10;84.30;;;;;;5026873;28;20045;-60
2021/06/06 07:46:24;;;;;;;3.90;1.30;;;19.10;84.20;;;;;;5035247;28;20061;-60
2021/06/06 07:48:49;;;;;;;2.50;1.33;;;19.10;84.10;;;;;;5056405;28;20020;-60
2021/06/06 07:51:15;;;;;;;2.45;0.95;;;19.10;83.90;;;;;;5047345;28;20044;-60
2021/06/06 07:53:41;;;;;;;5.75;1.00;;;19.10;83.80;;;;;;5015274;28;20029;-60
2021/06/06 07:56:06;;;;;;;3.28;1.10;;;19.10;83.60;;;;;;5043920;28;20062;-59
2021/06/06 07:58:34;;;;;;;5.22;1.50;;;19.10;83.50;;;;;;5053314;28;20362;-60
2021/06/06 08:00:59;;;;;;;2.28;1.08;;;19.10;83.40;;;;;;5048028;28;20025;-60
2021/06/06 08:03:28;;;;;;;2.25;1.10;;;19.10;83.40;;;;;;5044525;28;20021;-59
2021/06/06 08:05:53;;;;;;;10.52;1.50;;;19.20;83.40;;;;;;5050703;28;20764;-61
2021/06/06 08:08:19;;;;;;;4.78;1.13;;;19.20;83.50;;;;;;5053853;28;20114;-60
2021/06/06 08:10:49;;;;;;;6.05;1.30;;;19.20;83.50;;;;;;5032290;28;20033;-60
2021/06/06 08:13:15;;;;;;;10.10;1.70;;;19.20;83.50;;;;;;5027330;28;20025;-61
2021/06/06 08:15:40;;;;;;;5.70;1.55;;;19.20;84.20;;;;;;5012577;28;20056;-61
2021/06/06 08:18:07;;;;;;;12.73;1.70;;;19.20;83.80;;;;;;5046452;28;20037;-60
2021/06/06 08:20:45;;;;;;;7.13;1.95;;;19.20;83.70;;;;;;5036920;28;20057;-62
2021/06/06 08:23:10;;;;;;;13.95;2.00;;;19.20;83.70;;;;;;5031846;28;20499;-60
2021/06/06 08:25:39;;;;;;;18.67;1.80;;;19.20;83.80;;;;;;5054266;28;20048;-61
2021/06/06 08:28:06;;;;;;;8.38;1.50;;;19.20;84.00;;;;;;5031286;28;20046;-60
2021/06/06 08:30:42;;;;;;;10.98;2.55;;;19.20;83.80;;;;;;5029586;28;20098;-61
2021/06/06 08:33:08;;;;;;;16.02;2.38;;;19.30;83.80;;;;;;5030888;28;20017;-60
2021/06/06 08:35:34;;;;;;;14.60;2.40;;;19.30;83.80;;;;;;5045312;28;20527;-61
2021/06/06 08:37:59;;;;;;;12.52;1.75;;;19.30;83.80;;;;;;5048019;28;20089;-60
2021/06/06 08:40:48;;;;;;;17.92;3.17;;;19.30;83.70;;;;;;5048438;28;20040;-60
2021/06/06 08:43:13;;;;;;;19.73;2.70;;;19.40;84.10;;;;;;5029695;28;20198;-61
2021/06/06 08:45:50;;;;;;;22.65;3.17;;;19.40;84.10;;;;;;5013698;28;20534;-60
2021/06/06 08:48:18;;;;;;;14.75;2.17;;;19.40;83.80;;;;;;5026306;28;20017;-60
2021/06/06 08:50:51;;;;;;;13.82;2.47;;;19.50;83.10;;;;;;5023152;28;20083;-59
2021/06/06 08:53:39;;;;;;;17.75;2.47;;;19.50;82.90;;;;;;5022946;28;20033;-61
2021/06/06 08:56:19;;;;;;;16.58;2.42;;;19.50;82.70;;;;;;5009523;28;20053;-59
2021/06/06 08:59:08;;;;;;;31.23;3.72;;;19.50;83.00;;;;;;5037885;28;20072;-61
2021/06/06 09:01:50;;;;;;;26.75;3.70;;;19.60;83.30;;;;;;5033556;28;20435;-61
2021/06/06 09:04:21;;;;;;;22.60;2.63;;;19.60;83.20;;;;;;5027333;28;20045;-60
2021/06/06 09:06:57;;;;;;;25.08;3.88;;;19.60;83.20;;;;;;5043367;28;20029;-61
2021/06/06 09:09:26;;;;;;;43.70;4.90;;;19.70;83.50;;;;;;5049144;28;20021;-60
2021/06/06 09:11:52;;;;;;;36.22;4.38;;;19.70;83.40;;;;;;5052491;28;20024;-60
2021/06/06 09:14:17;;;;;;;56.00;5.78;;;19.70;83.30;;;;;;5048237;28;20025;-60
2021/06/06 09:16:52;;;;;;;60.22;5.53;;;19.80;83.80;;;;;;5035381;28;20116;-61
2021/06/06 09:19:18;;;;;;;46.13;4.80;;;19.80;83.40;;;;;;5034388;28;20099;-60
2021/06/06 09:22:02;;;;;;;55.15;5.15;;;19.90;83.20;;;;;;5041863;28;20063;-59
2021/06/06 09:24:46;;;;;;;36.25;4.18;;;19.90;82.90;;;;;;5042989;28;20041;-60
2021/06/06 09:27:20;;;;;;;26.48;3.75;;;19.90;82.80;;;;;;5018088;28;20028;-61
2021/06/06 09:29:46;;;;;;;26.27;3.28;;;19.90;82.90;;;;;;5036965;28;20029;-59
2021/06/06 09:32:19;;;;;;;36.83;4.28;;;19.90;82.30;;;;;;5042101;28;20048;-60
2021/06/06 09:34:52;;;;;;;40.22;5.35;;;20.00;82.50;;;;;;5042897;28;20041;-60
2021/06/06 09:37:19;;;;;;;145.40;13.45;;;20.00;82.70;;;;;;5030278;28;20033;-60
2021/06/06 09:39:46;;;;;;;68.25;7.32;;;20.10;83.40;;;;;;5047084;28;20053;-61
2021/06/06 09:42:18;;;;;;;42.88;5.47;;;20.10;83.20;;;;;;5023689;28;20124;-60
2021/06/06 09:44:43;;;;;;;42.05;5.63;;;20.10;82.60;;;;;;5050824;28;20036;-60
2021/06/06 09:47:09;;;;;;;46.13;5.35;;;20.20;82.20;;;;;;5034024;28;20021;-60
2021/06/06 09:49:38;;;;;;;51.78;6.15;;;20.20;82.20;;;;;;5058247;28;20834;-61
2021/06/06 09:52:19;;;;;;;45.70;5.15;;;20.20;82.00;;;;;;5038210;28;20033;-60
2021/06/06 09:54:49;;;;;;;39.25;5.18;;;20.30;82.00;;;;;;5006947;28;20044;-60
2021/06/06 09:57:36;;;;;;;46.08;5.65;;;20.30;81.70;;;;;;5015653;28;20025;-60
2021/06/06 10:00:22;;;;;;;59.33;6.18;;;20.40;81.70;;;;;;5033084;28;20029;-61
2021/06/06 10:02:51;;;;;;;;;;;20.40;81.70;;;;;;5060060;28;20032;-59
2021/06/06 10:05:38;;;;;;;50.00;7.00;;;20.40;81.60;;;;;;5039136;28;19932;-61
2021/06/06 10:08:06;;;;;;;49.65;6.20;;;20.50;81.30;;;;;;5031440;28;20082;-59
2021/06/06 10:10:40;;;;;;;56.90;6.93;;;20.60;81.30;;;;;;5012869;28;20021;-60
2021/06/06 10:13:07;;;;;;;61.28;8.00;;;20.60;81.30;;;;;;5041353;28;20025;-61
2021/06/06 10:15:45;;;;;;;95.80;8.55;;;20.70;81.40;;;;;;5010219;28;20033;-61
2021/06/06 10:18:16;;;;;;;54.53;6.35;;;20.70;81.30;;;;;;5034733;28;20057;-61
2021/06/06 10:21:03;;;;;;;52.80;6.60;;;20.70;81.20;;;;;;5031734;28;20036;-61
2021/06/06 10:23:34;;;;;;;66.78;6.13;;;20.70;81.40;;;;;;5035997;28;20037;-60
2021/06/06 10:26:33;;;;;;;57.17;6.75;;;20.80;81.10;;;;;;5027312;28;20112;-59
2021/06/06 10:29:20;;;;;;;68.30;7.60;;;20.80;80.40;;;;;;5030490;28;20065;-60
2021/06/06 10:31:46;;;;;;;60.05;5.38;;;20.80;80.20;;;;;;5036992;28;20088;-61
2021/06/06 10:34:29;;;;;;;47.95;5.35;;;20.80;80.60;;;;;;5026087;28;20037;-60
2021/06/06 10:36:55;;;;;;;45.67;5.68;;;20.80;80.40;;;;;;5034758;28;20542;-60
2021/06/06 10:39:26;;;;;;;51.58;4.72;;;20.80;79.80;;;;;;5043597;28;20041;-60
2021/06/06 10:41:59;;;;;;;57.25;5.95;;;20.80;79.40;;;;;;5022493;28;20025;-61
2021/06/06 10:44:33;;;;;;;57.13;5.82;;;20.80;79.40;;;;;;5024620;28;20044;-62
2021/06/06 10:47:07;;;;;;;51.45;6.28;;;20.80;79.60;;;;;;5033101;28;20029;-61
2021/06/06 10:49:36;;;;;;;56.85;7.25;;;20.80;79.70;;;;;;5029382;28;20021;-60
2021/06/06 10:52:24;;;;;;;43.97;5.78;;;20.90;79.60;;;;;;5014389;28;20024;-61
2021/06/06 10:54:57;;;;;;;60.40;6.05;;;20.80;79.50;;;;;;5027632;28;20062;-59
2021/06/06 10:57:25;;;;;;;70.70;7.32;;;20.90;79.40;;;;;;5011367;28;20052;-61
2021/06/06 10:59:53;;;;;;;64.68;6.78;;;20.90;79.50;;;;;;5051417;28;20052;-60
2021/06/06 11:02:32;;;;;;;56.30;6.38;;;21.00;79.50;;;;;;5025605;28;20075;-61
2021/06/06 11:05:19;;;;;;;54.03;5.10;;;20.90;79.30;;;;;;5039104;28;20025;-60
2021/06/06 11:07:45;;;;;;;57.92;5.10;;;21.00;79.50;;;;;;5020716;28;20041;-59
2021/06/06 11:10:18;;;;;;;50.40;4.45;;;21.00;79.70;;;;;;5013497;28;20400;-65
2021/06/06 11:12:44;;;;;;;39.53;4.72;;;21.00;79.70;;;;;;5045603;28;20028;-61
2021/06/06 11:15:37;;;;;;;32.83;5.05;;;21.00;79.40;;;;;;5028307;28;20114;-60
2021/06/06 11:18:10;;;;;;;40.58;4.80;;;21.10;79.30;;;;;;5037033;28;20140;-61
2021/06/06 11:20:47;;;;;;;57.20;5.43;;;21.10;79.60;;;;;;5042033;28;20037;-61
2021/06/06 11:23:14;;;;;;;44.30;4.75;;;21.00;79.50;;;;;;5025321;28;20063;-62
2021/06/06 11:25:44;;;;;;;32.05;3.97;;;21.10;79.10;;;;;;5023467;28;20021;-61
2021/06/06 11:28:35;;;;;;;32.50;3.38;;;21.20;78.80;;;;;;5035023;28;20052;-60
2021/06/06 11:31:02;;;;;;;31.17;4.38;;;21.20;78.50;;;;;;5040424;28;20096;-61
2021/06/06 11:33:45;;;;;;;34.28;4.20;;;21.20;78.60;;;;;;5029287;28;20453;-60
2021/06/06 11:36:11;;;;;;;74.60;9.32;;;21.30;78.40;;;;;;5021470;28;20064;-62
2021/06/06 11:38:47;;;;;;;59.42;6.45;;;21.30;78.20;;;;;;5025503;28;20245;-61
2021/06/06 11:41:29;;;;;;;62.13;7.00;;;21.30;77.70;;;;;;5026294;28;20048;-62
2021/06/06 11:43:55;;;;;;;31.88;4.05;;;21.30;77.60;;;;;;5028853;28;20809;-60
2021/06/06 11:46:52;;;;;;;61.92;5.32;;;21.30;77.00;;;;;;5045955;28;20029;-60
2021/06/06 11:49:36;;;;;;;81.82;9.15;;;21.40;77.10;;;;;;4956170;28;20114;-61
2021/06/06 11:52:09;;;;;;;67.85;7.47;;;21.40;77.50;;;;;;5033574;28;20017;-62
2021/06/06 11:54:40;;;;;;;46.47;5.15;;;21.40;77.90;;;;;;5020386;28;20124;-61
2021/06/06 11:57:32;;;;;;;33.33;3.92;;;21.40;77.60;;;;;;5029669;28;20028;-60
2021/06/06 12:00:22;;;;;;;26.60;4.28;;;21.40;77.90;;;;;;5037380;28;20017;-61
2021/06/06 12:02:47;;;;;;;41.03;6.22;;;21.40;78.00;;;;;;5035380;28;20044;-61
2021/06/06 12:05:20;;;;;;;40.05;4.32;;;21.40;78.00;;;;;;5019407;28;20037;-61
2021/06/06 12:07:46;;;;;;;27.42;3.53;;;21.40;78.10;;;;;;5030033;28;20100;-61
2021/06/06 12:10:30;;;;;;;38.50;3.63;;;21.40;78.30;;;;;;5027758;28;20032;-59
2021/06/06 12:12:57;;;;;;;33.83;4.03;;;21.40;78.60;;;;;;5018265;28;20103;-60
2021/06/06 12:15:42;;;;;;;81.53;7.63;;;21.40;79.20;;;;;;5042301;28;20040;-61
2021/06/06 12:18:13;;;;;;;40.42;5.20;;;21.40;79.00;;;;;;5009047;28;20025;-61
2021/06/06 12:21:02;;;;;;;45.95;5.82;;;21.40;78.70;;;;;;5010482;28;20452;-60
2021/06/06 12:23:30;;;;;;;69.03;5.70;;;21.40;78.60;;;;;;5022623;28;20383;-60
2021/06/06 12:26:17;;;;;;;75.22;7.35;;;21.40;78.90;;;;;;5027474;28;20049;-60
2021/06/06 12:28:47;;;;;;;50.67;4.90;;;21.50;78.70;;;;;;5019700;28;20173;-62
2021/06/06 12:31:27;;;;;;;59.85;6.38;;;21.40;78.40;;;;;;5037500;28;20029;-60
2021/06/06 12:33:53;;;;;;;109.60;13.05;;;21.40;78.40;;;;;;5041686;28;20041;-61
2021/06/06 12:36:24;;;;;;;74.30;7.57;;;21.40;79.10;;;;;;5033072;28;20025;-60
2021/06/06 12:38:53;;;;;;;57.55;5.40;;;21.40;79.50;;;;;;5038720;28;20029;-62
2021/06/06 12:41:19;;;;;;;45.40;6.28;;;21.40;80.10;;;;;;5027853;28;20478;-62
2021/06/06 12:43:52;;;;;;;43.85;4.15;;;21.50;80.70;;;;;;5029459;28;20044;-61
2021/06/06 12:46:18;;;;;;;50.33;4.38;;;21.40;79.90;;;;;;5027434;28;20053;-60
2021/06/06 12:48:57;;;;;;;45.78;5.68;;;21.40;80.10;;;;;;5022470;28;20500;-60
2021/06/06 12:51:26;;;;;;;41.00;4.43;;;21.40;80.50;;;;;;5025122;28;20131;-61
2021/06/06 12:53:52;;;;;;;55.28;5.32;;;21.40;81.20;;;;;;5033385;28;20061;-60
2021/06/06 12:56:27;;;;;;;68.65;7.22;;;21.40;81.30;;;;;;5022158;28;20041;-60
2021/06/06 12:59:13;;;;;;;73.28;6.60;;;21.40;83.50;;;;;;5022756;28;20021;-60